sensor_id;sensor_type;location;lat;lon;timestamp;temperature;humidity
29363;DHT22;16349;53.672;10.014;2022-09-09T00:00:47;14.70;99.90
29363;DHT22;16349;53.672;10.014;2022-09-09T00:03:21;14.70;99.90
29363;DHT22;16349;53.672;10.014;2022-09-09T00:05:54;14.70;99.90
29363;DHT22;16349;53.672;10.014;2022-09-09T00:08:34;14.70;99.90
29363;DHT22;16349;53.672;10.014;2022-09-09T00:11:05;14.70;99.90
29363;DHT22;16349;53.672;10.014;2022-09-09T00:13:36;14.60;99.90
29363;DHT22;16349;53.672;10.014;2022-09-09T00:16:09;14.60;99.90
29363;DHT22;16349;53.672;10.014;2022-09-09T00:18:50;14.50;99.90
29363;DHT22;16349;53.672;10.014;2022-09-09T00:21:18;14.50;99.90
29363;DHT22;16349;53.672;10.014;2022-09-09T00:23:50;14.50;99.90
29363;DHT22;16349;53.672;10.014;2022-09-09T00:26:23;14.50;99.90
29363;DHT22;16349;53.672;10.014;2022-09-09T00:29:03;14.50;99.90
29363;DHT22;16349;53.672;10.014;2022-09-09T00:31:32;14.50;99.90
29363;DHT22;16349;53.672;10.014;2022-09-09T00:34:08;14.50;99.90
29363;DHT22;16349;53.672;10.014;2022-09-09T00:36:39;14.50;99.90
29363;DHT22;16349;53.672;10.014;2022-09-09T00:39:15;14.50;99.90
29363;DHT22;16349;53.672;10.014;2022-09-09T00:41:56;14.50;99.90
29363;DHT22;16349;53.672;10.014;2022-09-09T00:44:30;14.50;99.90
29363;DHT22;16349;53.672;10.014;2022-09-09T00:47:11;14.50;99.90
29363;DHT22;16349;53.672;10.014;2022-09-09T00:49:48;14.50;99.90
29363;DHT22;16349;53.672;10.014;2022-09-09T00:52:31;14.50;99.90
29363;DHT22;16349;53.672;10.014;2022-09-09T00:55:07;14.50;99.90
29363;DHT22;16349;53.672;10.014;2022-09-09T00:57:36;14.60;99.90
29363;DHT22;16349;53.672;10.014;2022-09-09T01:00:21;14.50;99.90
29363;DHT22;16349;53.672;10.014;2022-09-09T01:03:10;14.60;99.90
29363;DHT22;16349;53.672;10.014;2022-09-09T01:05:51;14.60;99.90
29363;DHT22;16349;53.672;10.014;2022-09-09T01:11:22;14.60;99.90
29363;DHT22;16349;53.672;10.014;2022-09-09T01:13:55;14.70;99.90
29363;DHT22;16349;53.672;10.014;2022-09-09T01:16:29;14.70;99.90
29363;DHT22;16349;53.672;10.014;2022-09-09T01:18:58;14.70;99.90
29363;DHT22;16349;53.672;10.014;2022-09-09T01:21:37;14.70;99.90
29363;DHT22;16349;53.672;10.014;2022-09-09T01:24:19;14.70;99.90
29363;DHT22;16349;53.672;10.014;2022-09-09T01:27:13;14.70;99.90
29363;DHT22;16349;53.672;10.014;2022-09-09T01:29:41;14.70;99.90
29363;DHT22;16349;53.672;10.014;2022-09-09T01:32:41;14.80;99.90
29363;DHT22;16349;53.672;10.014;2022-09-09T01:35:12;14.80;99.90
29363;DHT22;16349;53.672;10.014;2022-09-09T01:37:41;14.80;99.90
29363;DHT22;16349;53.672;10.014;2022-09-09T01:40:08;14.80;99.90
29363;DHT22;16349;53.672;10.014;2022-09-09T01:42:37;14.80;99.90
29363;DHT22;16349;53.672;10.014;2022-09-09T01:45:06;14.80;99.90
29363;DHT22;16349;53.672;10.014;2022-09-09T01:47:34;14.80;99.90
29363;DHT22;16349;53.672;10.014;2022-09-09T01:50:23;14.80;99.90
29363;DHT22;16349;53.672;10.014;2022-09-09T01:52:53;14.80;99.90
29363;DHT22;16349;53.672;10.014;2022-09-09T01:55:29;14.80;99.90
29363;DHT22;16349;53.672;10.014;2022-09-09T01:58:08;14.80;99.90
29363;DHT22;16349;53.672;10.014;2022-09-09T02:00:50;14.80;99.90
29363;DHT22;16349;53.672;10.014;2022-09-09T02:03:25;14.80;99.90
29363;DHT22;16349;53.672;10.014;2022-09-09T02:06:10;14.80;99.90
29363;DHT22;16349;53.672;10.014;2022-09-09T02:08:44;14.80;99.90
29363;DHT22;16349;53.672;10.014;2022-09-09T02:11:14;14.80;99.90
29363;DHT22;16349;53.672;10.014;2022-09-09T02:14:19;14.80;99.90
29363;DHT22;16349;53.672;10.014;2022-09-09T02:16:52;14.80;99.90
29363;DHT22;16349;53.672;10.014;2022-09-09T02:19:31;14.80;99.90
29363;DHT22;16349;53.672;10.014;2022-09-09T02:22:05;14.80;99.90
29363;DHT22;16349;53.672;10.014;2022-09-09T02:24:35;14.80;99.90
29363;DHT22;16349;53.672;10.014;2022-09-09T02:27:22;14.70;99.90
29363;DHT22;16349;53.672;10.014;2022-09-09T02:29:53;14.70;99.90
29363;DHT22;16349;53.672;10.014;2022-09-09T02:32:38;14.80;99.90
29363;DHT22;16349;53.672;10.014;2022-09-09T02:35:12;14.80;99.90
29363;DHT22;16349;53.672;10.014;2022-09-09T02:37:42;14.70;99.90
29363;DHT22;16349;53.672;10.014;2022-09-09T02:40:13;14.70;99.90
29363;DHT22;16349;53.672;10.014;2022-09-09T02:42:46;14.70;99.90
29363;DHT22;16349;53.672;10.014;2022-09-09T02:45:17;14.70;99.90
29363;DHT22;16349;53.672;10.014;2022-09-09T02:47:50;14.70;99.90
29363;DHT22;16349;53.672;10.014;2022-09-09T02:50:25;14.70;99.90
29363;DHT22;16349;53.672;10.014;2022-09-09T02:53:04;14.60;99.90
29363;DHT22;16349;53.672;10.014;2022-09-09T02:55:39;14.60;99.90
29363;DHT22;16349;53.672;10.014;2022-09-09T02:58:11;14.60;99.90
29363;DHT22;16349;53.672;10.014;2022-09-09T03:00:44;14.60;99.90
29363;DHT22;16349;53.672;10.014;2022-09-09T03:03:12;14.60;99.90
29363;DHT22;16349;53.672;10.014;2022-09-09T03:05:39;14.60;99.90
29363;DHT22;16349;53.672;10.014;2022-09-09T03:08:06;14.60;99.90
29363;DHT22;16349;53.672;10.014;2022-09-09T03:10:34;14.60;99.90
29363;DHT22;16349;53.672;10.014;2022-09-09T03:13:03;14.60;99.90
29363;DHT22;16349;53.672;10.014;2022-09-09T03:15:34;14.50;99.90
29363;DHT22;16349;53.672;10.014;2022-09-09T03:18:03;14.60;99.90
29363;DHT22;16349;53.672;10.014;2022-09-09T03:20:30;14.50;99.90
29363;DHT22;16349;53.672;10.014;2022-09-09T03:22:59;14.50;99.90
29363;DHT22;16349;53.672;10.014;2022-09-09T03:25:27;14.50;99.90
29363;DHT22;16349;53.672;10.014;2022-09-09T03:27:55;14.50;99.90
29363;DHT22;16349;53.672;10.014;2022-09-09T03:30:24;14.40;99.90
29363;DHT22;16349;53.672;10.014;2022-09-09T03:32:51;14.50;99.90
29363;DHT22;16349;53.672;10.014;2022-09-09T03:35:19;14.50;99.90
29363;DHT22;16349;53.672;10.014;2022-09-09T03:37:47;14.50;99.90
29363;DHT22;16349;53.672;10.014;2022-09-09T03:40:14;14.50;99.90
29363;DHT22;16349;53.672;10.014;2022-09-09T03:42:44;14.50;99.90
29363;DHT22;16349;53.672;10.014;2022-09-09T03:45:11;14.50;99.90
29363;DHT22;16349;53.672;10.014;2022-09-09T03:47:40;14.40;99.90
29363;DHT22;16349;53.672;10.014;2022-09-09T03:50:08;14.40;99.90
29363;DHT22;16349;53.672;10.014;2022-09-09T03:52:42;14.40;99.90
29363;DHT22;16349;53.672;10.014;2022-09-09T03:55:18;14.40;99.90
29363;DHT22;16349;53.672;10.014;2022-09-09T03:57:45;14.40;99.90
29363;DHT22;16349;53.672;10.014;2022-09-09T04:00:13;14.40;99.90
29363;DHT22;16349;53.672;10.014;2022-09-09T04:02:44;14.30;99.90
29363;DHT22;16349;53.672;10.014;2022-09-09T04:05:14;14.30;99.90
29363;DHT22;16349;53.672;10.014;2022-09-09T04:07:44;14.30;99.90
29363;DHT22;16349;53.672;10.014;2022-09-09T04:10:11;14.30;99.90
29363;DHT22;16349;53.672;10.014;2022-09-09T04:12:39;14.30;99.90
29363;DHT22;16349;53.672;10.014;2022-09-09T04:15:07;14.20;99.90
29363;DHT22;16349;53.672;10.014;2022-09-09T04:17:35;14.20;99.90
29363;DHT22;16349;53.672;10.014;2022-09-09T04:20:03;14.20;99.90
29363;DHT22;16349;53.672;10.014;2022-09-09T04:22:30;14.20;99.90
29363;DHT22;16349;53.672;10.014;2022-09-09T04:25:00;14.20;99.90
29363;DHT22;16349;53.672;10.014;2022-09-09T04:27:28;14.10;99.90
29363;DHT22;16349;53.672;10.014;2022-09-09T04:29:55;14.10;99.90
29363;DHT22;16349;53.672;10.014;2022-09-09T04:32:24;14.10;99.90
29363;DHT22;16349;53.672;10.014;2022-09-09T04:34:52;14.10;99.90
29363;DHT22;16349;53.672;10.014;2022-09-09T04:37:19;14.10;99.90
29363;DHT22;16349;53.672;10.014;2022-09-09T04:39:46;14.10;99.90
29363;DHT22;16349;53.672;10.014;2022-09-09T04:42:14;14.10;99.90
29363;DHT22;16349;53.672;10.014;2022-09-09T04:44:42;14.10;99.90
29363;DHT22;16349;53.672;10.014;2022-09-09T04:47:09;14.10;99.90
29363;DHT22;16349;53.672;10.014;2022-09-09T04:49:36;14.00;99.90
29363;DHT22;16349;53.672;10.014;2022-09-09T04:52:04;14.00;99.90
29363;DHT22;16349;53.672;10.014;2022-09-09T04:54:33;14.00;99.90
29363;DHT22;16349;53.672;10.014;2022-09-09T04:57:00;14.00;99.90
29363;DHT22;16349;53.672;10.014;2022-09-09T04:59:28;14.00;99.90
29363;DHT22;16349;53.672;10.014;2022-09-09T05:01:57;14.00;99.90
29363;DHT22;16349;53.672;10.014;2022-09-09T05:04:24;14.00;99.90
29363;DHT22;16349;53.672;10.014;2022-09-09T05:06:51;14.00;99.90
29363;DHT22;16349;53.672;10.014;2022-09-09T05:09:18;14.00;99.90
29363;DHT22;16349;53.672;10.014;2022-09-09T05:11:46;14.00;99.90
29363;DHT22;16349;53.672;10.014;2022-09-09T05:14:23;14.00;99.90
29363;DHT22;16349;53.672;10.014;2022-09-09T05:16:52;14.00;99.90
29363;DHT22;16349;53.672;10.014;2022-09-09T05:19:20;14.00;99.90
29363;DHT22;16349;53.672;10.014;2022-09-09T05:21:48;14.00;99.90
29363;DHT22;16349;53.672;10.014;2022-09-09T05:24:20;14.00;99.90
29363;DHT22;16349;53.672;10.014;2022-09-09T05:26:51;14.00;99.90
29363;DHT22;16349;53.672;10.014;2022-09-09T05:29:18;14.00;99.90
29363;DHT22;16349;53.672;10.014;2022-09-09T05:31:45;14.00;99.90
29363;DHT22;16349;53.672;10.014;2022-09-09T05:34:15;14.00;99.90
29363;DHT22;16349;53.672;10.014;2022-09-09T05:36:42;14.00;99.90
29363;DHT22;16349;53.672;10.014;2022-09-09T05:39:09;14.00;99.90
29363;DHT22;16349;53.672;10.014;2022-09-09T05:41:37;14.00;99.90
29363;DHT22;16349;53.672;10.014;2022-09-09T05:44:04;14.00;99.90
29363;DHT22;16349;53.672;10.014;2022-09-09T05:46:36;14.00;99.90
29363;DHT22;16349;53.672;10.014;2022-09-09T05:49:03;14.00;99.90
29363;DHT22;16349;53.672;10.014;2022-09-09T05:51:33;14.00;99.90
29363;DHT22;16349;53.672;10.014;2022-09-09T05:54:11;14.00;99.90
29363;DHT22;16349;53.672;10.014;2022-09-09T05:56:44;14.00;99.90
29363;DHT22;16349;53.672;10.014;2022-09-09T05:59:12;14.00;99.90
29363;DHT22;16349;53.672;10.014;2022-09-09T06:01:40;14.00;99.90
29363;DHT22;16349;53.672;10.014;2022-09-09T06:04:10;14.00;99.90
29363;DHT22;16349;53.672;10.014;2022-09-09T06:06:40;14.00;99.90
29363;DHT22;16349;53.672;10.014;2022-09-09T06:09:11;14.10;99.90
29363;DHT22;16349;53.672;10.014;2022-09-09T06:11:43;14.10;99.90
29363;DHT22;16349;53.672;10.014;2022-09-09T06:14:12;14.10;99.90
29363;DHT22;16349;53.672;10.014;2022-09-09T06:16:39;14.10;99.90
29363;DHT22;16349;53.672;10.014;2022-09-09T06:19:19;14.20;99.90
29363;DHT22;16349;53.672;10.014;2022-09-09T06:21:48;14.20;99.90
29363;DHT22;16349;53.672;10.014;2022-09-09T06:24:16;14.30;99.90
29363;DHT22;16349;53.672;10.014;2022-09-09T06:26:44;14.30;99.90
29363;DHT22;16349;53.672;10.014;2022-09-09T06:29:16;14.40;99.90
29363;DHT22;16349;53.672;10.014;2022-09-09T06:31:44;14.40;99.90
29363;DHT22;16349;53.672;10.014;2022-09-09T06:34:17;14.40;99.90
29363;DHT22;16349;53.672;10.014;2022-09-09T06:36:50;14.50;99.90
29363;DHT22;16349;53.672;10.014;2022-09-09T06:39:17;14.50;99.90
29363;DHT22;16349;53.672;10.014;2022-09-09T06:41:45;14.50;99.90
29363;DHT22;16349;53.672;10.014;2022-09-09T06:44:38;14.60;99.90
29363;DHT22;16349;53.672;10.014;2022-09-09T06:47:08;14.60;99.90
29363;DHT22;16349;53.672;10.014;2022-09-09T06:49:37;14.60;99.90
29363;DHT22;16349;53.672;10.014;2022-09-09T06:52:09;14.70;99.90
29363;DHT22;16349;53.672;10.014;2022-09-09T06:54:36;14.80;99.90
29363;DHT22;16349;53.672;10.014;2022-09-09T06:57:04;14.80;99.90
29363;DHT22;16349;53.672;10.014;2022-09-09T06:59:32;14.90;99.90
29363;DHT22;16349;53.672;10.014;2022-09-09T07:01:59;14.90;99.90
29363;DHT22;16349;53.672;10.014;2022-09-09T07:04:28;15.00;99.90
29363;DHT22;16349;53.672;10.014;2022-09-09T07:06:55;15.10;99.90
29363;DHT22;16349;53.672;10.014;2022-09-09T07:09:25;15.20;99.90
29363;DHT22;16349;53.672;10.014;2022-09-09T07:11:53;15.30;99.90
29363;DHT22;16349;53.672;10.014;2022-09-09T07:14:22;15.40;99.90
29363;DHT22;16349;53.672;10.014;2022-09-09T07:16:54;15.50;99.90
29363;DHT22;16349;53.672;10.014;2022-09-09T07:19:20;15.60;99.90
29363;DHT22;16349;53.672;10.014;2022-09-09T07:21:50;15.70;99.90
29363;DHT22;16349;53.672;10.014;2022-09-09T07:24:20;15.80;99.90
29363;DHT22;16349;53.672;10.014;2022-09-09T07:26:49;15.80;99.90
29363;DHT22;16349;53.672;10.014;2022-09-09T07:29:17;15.90;99.90
29363;DHT22;16349;53.672;10.014;2022-09-09T07:31:44;16.00;99.90
29363;DHT22;16349;53.672;10.014;2022-09-09T07:34:15;16.10;99.90
29363;DHT22;16349;53.672;10.014;2022-09-09T07:36:42;16.10;99.90
29363;DHT22;16349;53.672;10.014;2022-09-09T07:39:13;16.20;99.90
29363;DHT22;16349;53.672;10.014;2022-09-09T07:41:45;16.30;99.90
29363;DHT22;16349;53.672;10.014;2022-09-09T07:44:16;16.30;99.90
29363;DHT22;16349;53.672;10.014;2022-09-09T07:46:48;16.30;99.90
29363;DHT22;16349;53.672;10.014;2022-09-09T07:49:19;16.40;99.90
29363;DHT22;16349;53.672;10.014;2022-09-09T07:51:47;16.40;99.90
29363;DHT22;16349;53.672;10.014;2022-09-09T07:54:16;16.40;99.90
29363;DHT22;16349;53.672;10.014;2022-09-09T07:56:47;16.50;99.90
29363;DHT22;16349;53.672;10.014;2022-09-09T07:59:17;16.60;99.90
29363;DHT22;16349;53.672;10.014;2022-09-09T08:01:48;16.60;99.90
29363;DHT22;16349;53.672;10.014;2022-09-09T08:04:22;16.60;99.90
29363;DHT22;16349;53.672;10.014;2022-09-09T08:06:52;16.70;99.90
29363;DHT22;16349;53.672;10.014;2022-09-09T08:09:21;16.70;99.90
29363;DHT22;16349;53.672;10.014;2022-09-09T08:11:50;16.80;99.90
29363;DHT22;16349;53.672;10.014;2022-09-09T08:14:19;16.80;99.90
29363;DHT22;16349;53.672;10.014;2022-09-09T08:16:47;16.80;99.90
29363;DHT22;16349;53.672;10.014;2022-09-09T08:19:17;16.80;99.90
29363;DHT22;16349;53.672;10.014;2022-09-09T08:21:45;16.80;99.90
29363;DHT22;16349;53.672;10.014;2022-09-09T08:24:14;16.80;99.90
29363;DHT22;16349;53.672;10.014;2022-09-09T08:26:46;16.80;99.90
29363;DHT22;16349;53.672;10.014;2022-09-09T08:29:18;16.80;99.90
29363;DHT22;16349;53.672;10.014;2022-09-09T08:31:48;16.80;99.90
29363;DHT22;16349;53.672;10.014;2022-09-09T08:34:15;16.90;99.90
29363;DHT22;16349;53.672;10.014;2022-09-09T08:36:44;16.90;99.90
29363;DHT22;16349;53.672;10.014;2022-09-09T08:39:14;17.00;99.90
29363;DHT22;16349;53.672;10.014;2022-09-09T08:42:13;17.00;99.90
29363;DHT22;16349;53.672;10.014;2022-09-09T08:45:02;17.10;99.90
29363;DHT22;16349;53.672;10.014;2022-09-09T08:47:38;17.10;99.90
29363;DHT22;16349;53.672;10.014;2022-09-09T08:50:19;17.20;99.90
29363;DHT22;16349;53.672;10.014;2022-09-09T08:52:54;17.30;99.90
29363;DHT22;16349;53.672;10.014;2022-09-09T08:55:26;17.40;99.90
29363;DHT22;16349;53.672;10.014;2022-09-09T08:57:58;17.40;99.90
29363;DHT22;16349;53.672;10.014;2022-09-09T09:00:36;17.50;99.90
29363;DHT22;16349;53.672;10.014;2022-09-09T09:03:12;17.50;99.90
29363;DHT22;16349;53.672;10.014;2022-09-09T09:05:47;17.60;99.90
29363;DHT22;16349;53.672;10.014;2022-09-09T09:08:26;17.70;99.90
29363;DHT22;16349;53.672;10.014;2022-09-09T09:10:57;17.70;99.90
29363;DHT22;16349;53.672;10.014;2022-09-09T09:13:32;17.80;99.90
29363;DHT22;16349;53.672;10.014;2022-09-09T09:16:09;17.90;99.90
29363;DHT22;16349;53.672;10.014;2022-09-09T09:18:40;18.00;99.90
29363;DHT22;16349;53.672;10.014;2022-09-09T09:21:12;18.00;99.90
29363;DHT22;16349;53.672;10.014;2022-09-09T09:23:47;18.10;99.90
29363;DHT22;16349;53.672;10.014;2022-09-09T09:26:18;18.20;99.90
29363;DHT22;16349;53.672;10.014;2022-09-09T09:28:45;18.20;99.90
29363;DHT22;16349;53.672;10.014;2022-09-09T09:31:20;18.30;99.90
29363;DHT22;16349;53.672;10.014;2022-09-09T09:33:49;18.30;99.90
29363;DHT22;16349;53.672;10.014;2022-09-09T09:36:18;18.40;99.90
29363;DHT22;16349;53.672;10.014;2022-09-09T09:38:55;18.40;99.90
29363;DHT22;16349;53.672;10.014;2022-09-09T09:41:31;18.50;99.90
29363;DHT22;16349;53.672;10.014;2022-09-09T09:43:59;18.50;99.90
29363;DHT22;16349;53.672;10.014;2022-09-09T09:46:29;18.50;99.90
29363;DHT22;16349;53.672;10.014;2022-09-09T09:49:09;18.50;99.90
29363;DHT22;16349;53.672;10.014;2022-09-09T09:51:37;18.60;99.90
29363;DHT22;16349;53.672;10.014;2022-09-09T09:54:13;18.60;99.90
29363;DHT22;16349;53.672;10.014;2022-09-09T09:56:45;18.70;99.90
29363;DHT22;16349;53.672;10.014;2022-09-09T09:59:34;18.70;99.90
29363;DHT22;16349;53.672;10.014;2022-09-09T10:02:14;18.80;99.90
29363;DHT22;16349;53.672;10.014;2022-09-09T10:04:42;18.80;99.90
29363;DHT22;16349;53.672;10.014;2022-09-09T10:07:11;18.90;99.90
29363;DHT22;16349;53.672;10.014;2022-09-09T10:09:38;19.00;99.90
29363;DHT22;16349;53.672;10.014;2022-09-09T10:12:15;19.00;99.90
29363;DHT22;16349;53.672;10.014;2022-09-09T10:14:50;19.20;99.90
29363;DHT22;16349;53.672;10.014;2022-09-09T10:17:25;19.30;99.90
29363;DHT22;16349;53.672;10.014;2022-09-09T10:20:06;19.40;99.90
29363;DHT22;16349;53.672;10.014;2022-09-09T10:22:39;19.50;99.90
29363;DHT22;16349;53.672;10.014;2022-09-09T10:25:23;19.40;99.90
29363;DHT22;16349;53.672;10.014;2022-09-09T10:28:07;19.60;99.90
29363;DHT22;16349;53.672;10.014;2022-09-09T10:30:44;19.60;99.90
29363;DHT22;16349;53.672;10.014;2022-09-09T10:33:22;19.60;99.90
29363;DHT22;16349;53.672;10.014;2022-09-09T10:35:58;19.60;99.90
29363;DHT22;16349;53.672;10.014;2022-09-09T10:38:38;19.70;99.90
29363;DHT22;16349;53.672;10.014;2022-09-09T10:41:15;19.60;99.90
29363;DHT22;16349;53.672;10.014;2022-09-09T10:44:02;19.60;99.90
29363;DHT22;16349;53.672;10.014;2022-09-09T10:46:41;19.60;99.90
29363;DHT22;16349;53.672;10.014;2022-09-09T10:49:21;19.80;99.90
29363;DHT22;16349;53.672;10.014;2022-09-09T10:51:55;19.80;99.90
29363;DHT22;16349;53.672;10.014;2022-09-09T10:54:42;19.90;99.90
29363;DHT22;16349;53.672;10.014;2022-09-09T10:57:15;20.10;99.90
29363;DHT22;16349;53.672;10.014;2022-09-09T10:59:46;20.10;99.90
29363;DHT22;16349;53.672;10.014;2022-09-09T11:02:17;20.10;99.90
29363;DHT22;16349;53.672;10.014;2022-09-09T11:04:51;20.30;99.90
29363;DHT22;16349;53.672;10.014;2022-09-09T11:07:26;20.30;99.90
29363;DHT22;16349;53.672;10.014;2022-09-09T11:09:58;20.40;99.90
29363;DHT22;16349;53.672;10.014;2022-09-09T11:12:28;20.50;99.90
29363;DHT22;16349;53.672;10.014;2022-09-09T11:15:01;20.50;99.90
29363;DHT22;16349;53.672;10.014;2022-09-09T11:17:35;20.50;99.90
29363;DHT22;16349;53.672;10.014;2022-09-09T11:20:11;20.70;99.90
29363;DHT22;16349;53.672;10.014;2022-09-09T11:22:44;20.80;99.90
29363;DHT22;16349;53.672;10.014;2022-09-09T11:25:16;20.80;99.90
29363;DHT22;16349;53.672;10.014;2022-09-09T11:27:53;20.70;99.90
29363;DHT22;16349;53.672;10.014;2022-09-09T11:30:23;20.60;99.90
29363;DHT22;16349;53.672;10.014;2022-09-09T11:36:13;20.40;99.90
29363;DHT22;16349;53.672;10.014;2022-09-09T11:38:45;20.40;99.90
29363;DHT22;16349;53.672;10.014;2022-09-09T11:41:13;20.40;99.90
29363;DHT22;16349;53.672;10.014;2022-09-09T11:43:42;20.40;99.90
29363;DHT22;16349;53.672;10.014;2022-09-09T11:46:12;20.40;99.90
29363;DHT22;16349;53.672;10.014;2022-09-09T11:48:42;20.50;99.90
29363;DHT22;16349;53.672;10.014;2022-09-09T11:51:25;20.50;99.90
29363;DHT22;16349;53.672;10.014;2022-09-09T11:53:54;20.50;99.90
29363;DHT22;16349;53.672;10.014;2022-09-09T11:56:26;20.60;99.90
29363;DHT22;16349;53.672;10.014;2022-09-09T11:58:56;20.60;99.90
29363;DHT22;16349;53.672;10.014;2022-09-09T12:01:35;20.60;99.90
29363;DHT22;16349;53.672;10.014;2022-09-09T12:04:14;20.60;99.90
29363;DHT22;16349;53.672;10.014;2022-09-09T12:06:45;20.60;99.90
29363;DHT22;16349;53.672;10.014;2022-09-09T12:09:19;20.60;99.90
29363;DHT22;16349;53.672;10.014;2022-09-09T12:11:49;20.80;99.90
29363;DHT22;16349;53.672;10.014;2022-09-09T12:14:21;21.00;99.90
29363;DHT22;16349;53.672;10.014;2022-09-09T12:16:48;21.00;99.90
29363;DHT22;16349;53.672;10.014;2022-09-09T12:19:22;21.10;99.90
29363;DHT22;16349;53.672;10.014;2022-09-09T12:21:58;21.30;99.90
29363;DHT22;16349;53.672;10.014;2022-09-09T12:24:32;21.40;99.90
29363;DHT22;16349;53.672;10.014;2022-09-09T12:27:07;21.50;99.90
29363;DHT22;16349;53.672;10.014;2022-09-09T12:29:44;21.50;99.90
29363;DHT22;16349;53.672;10.014;2022-09-09T12:32:16;21.40;99.90
29363;DHT22;16349;53.672;10.014;2022-09-09T12:34:47;21.20;99.90
29363;DHT22;16349;53.672;10.014;2022-09-09T12:37:27;21.00;99.90
29363;DHT22;16349;53.672;10.014;2022-09-09T12:39:56;20.90;99.90
29363;DHT22;16349;53.672;10.014;2022-09-09T12:42:24;20.90;99.90
29363;DHT22;16349;53.672;10.014;2022-09-09T12:44:55;20.80;99.90
29363;DHT22;16349;53.672;10.014;2022-09-09T12:47:30;20.80;99.90
29363;DHT22;16349;53.672;10.014;2022-09-09T12:50:01;20.70;99.90
29363;DHT22;16349;53.672;10.014;2022-09-09T12:52:31;20.60;99.90
29363;DHT22;16349;53.672;10.014;2022-09-09T12:55:01;20.60;99.90
29363;DHT22;16349;53.672;10.014;2022-09-09T12:57:33;20.60;99.90
29363;DHT22;16349;53.672;10.014;2022-09-09T13:00:15;20.50;99.90
29363;DHT22;16349;53.672;10.014;2022-09-09T13:02:48;20.50;99.90
29363;DHT22;16349;53.672;10.014;2022-09-09T13:05:19;20.50;99.90
29363;DHT22;16349;53.672;10.014;2022-09-09T13:07:48;20.40;99.90
29363;DHT22;16349;53.672;10.014;2022-09-09T13:10:22;20.30;99.90
29363;DHT22;16349;53.672;10.014;2022-09-09T13:12:49;20.20;99.90
29363;DHT22;16349;53.672;10.014;2022-09-09T13:15:21;20.10;99.90
29363;DHT22;16349;53.672;10.014;2022-09-09T13:17:53;20.00;99.90
29363;DHT22;16349;53.672;10.014;2022-09-09T13:20:21;19.80;99.90
29363;DHT22;16349;53.672;10.014;2022-09-09T13:22:52;19.60;99.90
29363;DHT22;16349;53.672;10.014;2022-09-09T13:25:24;19.50;99.90
29363;DHT22;16349;53.672;10.014;2022-09-09T13:27:58;19.40;99.90
29363;DHT22;16349;53.672;10.014;2022-09-09T13:30:28;19.20;99.90
29363;DHT22;16349;53.672;10.014;2022-09-09T13:33:21;19.10;99.90
29363;DHT22;16349;53.672;10.014;2022-09-09T13:35:50;19.00;99.90
29363;DHT22;16349;53.672;10.014;2022-09-09T13:38:19;18.90;99.90
29363;DHT22;16349;53.672;10.014;2022-09-09T13:40:55;18.70;99.90
29363;DHT22;16349;53.672;10.014;2022-09-09T13:43:24;18.60;99.90
29363;DHT22;16349;53.672;10.014;2022-09-09T13:45:55;18.40;99.90
29363;DHT22;16349;53.672;10.014;2022-09-09T13:48:24;18.40;99.90
29363;DHT22;16349;53.672;10.014;2022-09-09T13:50:56;18.30;99.90
29363;DHT22;16349;53.672;10.014;2022-09-09T13:53:25;18.20;99.90
29363;DHT22;16349;53.672;10.014;2022-09-09T13:55:53;18.00;99.90
29363;DHT22;16349;53.672;10.014;2022-09-09T13:58:19;17.90;99.90
29363;DHT22;16349;53.672;10.014;2022-09-09T14:00:48;17.90;99.90
29363;DHT22;16349;53.672;10.014;2022-09-09T14:03:15;17.80;99.90
29363;DHT22;16349;53.672;10.014;2022-09-09T14:05:43;17.70;99.90
29363;DHT22;16349;53.672;10.014;2022-09-09T14:08:15;17.70;99.90
29363;DHT22;16349;53.672;10.014;2022-09-09T14:10:44;17.70;99.90
29363;DHT22;16349;53.672;10.014;2022-09-09T14:13:11;17.60;99.90
29363;DHT22;16349;53.672;10.014;2022-09-09T14:15:38;17.60;99.90
29363;DHT22;16349;53.672;10.014;2022-09-09T14:18:05;17.60;99.90
29363;DHT22;16349;53.672;10.014;2022-09-09T14:20:31;17.60;99.90
29363;DHT22;16349;53.672;10.014;2022-09-09T14:22:58;17.60;99.90
29363;DHT22;16349;53.672;10.014;2022-09-09T14:25:25;17.50;99.90
29363;DHT22;16349;53.672;10.014;2022-09-09T14:27:53;17.50;99.90
29363;DHT22;16349;53.672;10.014;2022-09-09T14:30:20;17.50;99.90
29363;DHT22;16349;53.672;10.014;2022-09-09T14:32:47;17.40;99.90
29363;DHT22;16349;53.672;10.014;2022-09-09T14:35:14;17.40;99.90
29363;DHT22;16349;53.672;10.014;2022-09-09T14:37:42;17.40;99.90
29363;DHT22;16349;53.672;10.014;2022-09-09T14:40:10;17.40;99.90
29363;DHT22;16349;53.672;10.014;2022-09-09T14:42:37;17.40;99.90
29363;DHT22;16349;53.672;10.014;2022-09-09T14:45:06;17.40;99.90
29363;DHT22;16349;53.672;10.014;2022-09-09T14:47:33;17.40;99.90
29363;DHT22;16349;53.672;10.014;2022-09-09T14:50:02;17.40;99.90
29363;DHT22;16349;53.672;10.014;2022-09-09T14:52:30;17.40;99.90
29363;DHT22;16349;53.672;10.014;2022-09-09T14:54:58;17.40;99.90
29363;DHT22;16349;53.672;10.014;2022-09-09T14:57:24;17.40;99.90
29363;DHT22;16349;53.672;10.014;2022-09-09T14:59:51;17.40;99.90
29363;DHT22;16349;53.672;10.014;2022-09-09T15:02:20;17.40;99.90
29363;DHT22;16349;53.672;10.014;2022-09-09T15:04:46;17.40;99.90
29363;DHT22;16349;53.672;10.014;2022-09-09T15:07:15;17.40;99.90
29363;DHT22;16349;53.672;10.014;2022-09-09T15:09:45;17.40;99.90
29363;DHT22;16349;53.672;10.014;2022-09-09T15:12:13;17.40;99.90
29363;DHT22;16349;53.672;10.014;2022-09-09T15:14:41;17.40;99.90
29363;DHT22;16349;53.672;10.014;2022-09-09T15:17:08;17.40;99.90
29363;DHT22;16349;53.672;10.014;2022-09-09T15:19:36;17.40;99.90
29363;DHT22;16349;53.672;10.014;2022-09-09T15:22:03;17.40;99.90
29363;DHT22;16349;53.672;10.014;2022-09-09T15:24:33;17.40;99.90
29363;DHT22;16349;53.672;10.014;2022-09-09T15:27:00;17.40;99.90
29363;DHT22;16349;53.672;10.014;2022-09-09T15:29:27;17.40;99.90
29363;DHT22;16349;53.672;10.014;2022-09-09T15:31:55;17.40;99.90
29363;DHT22;16349;53.672;10.014;2022-09-09T15:34:22;17.40;99.90
29363;DHT22;16349;53.672;10.014;2022-09-09T15:36:50;17.30;99.90
29363;DHT22;16349;53.672;10.014;2022-09-09T15:39:17;17.30;99.90
29363;DHT22;16349;53.672;10.014;2022-09-09T15:41:46;17.30;99.90
29363;DHT22;16349;53.672;10.014;2022-09-09T15:44:14;17.30;99.90
29363;DHT22;16349;53.672;10.014;2022-09-09T15:46:43;17.40;99.90
29363;DHT22;16349;53.672;10.014;2022-09-09T15:49:12;17.40;99.90